Time;durP1;ratioP1;P1;durP2;ratioP2;P2;SDS_P1;SDS_P2;PMS_P1;PMS_P2;Temp;Humidity;BMP_temperature;BMP_pressure;BME280_temperature;BME280_humidity;BME280_pressure;Samples;Min_cycle;Max_cycle;Signal;HPM_P1;HPM_P2
2023/01/04 00:01:25;;;;;;;28.40;13.65;;;;;;;;;;5152448;27;20106;-72
2023/01/04 00:03:50;;;;;;;25.45;13.15;;;;;;;;;;5152427;27;20443;-69
2023/01/04 00:06:17;;;;;;;26.13;13.52;;;;;;;;;;5152322;27;20018;-70
2023/01/04 00:08:42;;;;;;;24.67;13.38;;;;;;;;;;5152448;27;20481;-69
2023/01/04 00:11:12;;;;;;;25.38;13.00;;;;;;;;;;5152171;27;20039;-69
2023/01/04 00:13:37;;;;;;;23.77;12.65;;;;;;;;;;5152081;27;20030;-66
2023/01/04 00:16:05;;;;;;;24.67;13.05;;;;;;;;;;5152198;27;20018;-69
2023/01/04 00:18:32;;;;;;;23.10;12.55;;;;;;;;;;5152002;27;20022;-68
2023/01/04 00:21:18;;;;;;;22.65;12.55;;;;;;;;;;5152361;27;20070;-71
2023/01/04 00:23:45;;;;;;;23.55;12.45;;;;;;;;;;5152383;27;20030;-70
2023/01/04 00:26:23;;;;;;;22.08;12.07;;;;;;;;;;5152171;27;20026;-70
2023/01/04 00:28:56;;;;;;;20.50;11.82;;;;;;;;;;5152248;27;20049;-70
2023/01/04 00:31:23;;;;;;;22.08;12.65;;;;;;;;;;5152232;27;20023;-72
2023/01/04 00:33:49;;;;;;;20.95;13.27;;;;;;;;;;5151868;27;20035;-69
2023/01/04 00:36:14;;;;;;;21.63;12.90;;;;;;;;;;5152012;27;20042;-71
2023/01/04 00:38:41;;;;;;;22.17;13.45;;;;;;;;;;5151842;27;20015;-67
2023/01/04 00:41:07;;;;;;;23.25;13.90;;;;;;;;;;5152087;27;20029;-67
2023/01/04 00:43:33;;;;;;;22.27;13.65;;;;;;;;;;5151841;27;20133;-68
2023/01/04 00:46:00;;;;;;;20.75;12.50;;;;;;;;;;5151987;27;20106;-70
2023/01/04 00:48:26;;;;;;;19.83;12.90;;;;;;;;;;5151697;27;20050;-67
2023/01/04 00:50:51;;;;;;;20.17;12.45;;;;;;;;;;5151766;27;20484;-68
2023/01/04 00:53:17;;;;;;;20.48;12.07;;;;;;;;;;5151486;27;20038;-68
2023/01/04 00:55:43;;;;;;;22.55;12.30;;;;;;;;;;5151946;27;20031;-68
2023/01/04 00:58:09;;;;;;;20.70;12.32;;;;;;;;;;5151544;27;20029;-67
2023/01/04 01:00:35;;;;;;;21.02;12.85;;;;;;;;;;5151780;27;20109;-68
2023/01/04 01:03:00;;;;;;;22.55;12.20;;;;;;;;;;5151739;27;20057;-69
2023/01/04 01:05:26;;;;;;;21.45;13.00;;;;;;;;;;5151951;27;20030;-67
2023/01/04 01:07:51;;;;;;;28.48;13.68;;;;;;;;;;5151602;27;20030;-67
2023/01/04 01:10:17;;;;;;;32.80;14.25;;;;;;;;;;5151770;27;20023;-67
2023/01/04 01:12:42;;;;;;;32.35;14.70;;;;;;;;;;5150244;27;20065;-67
2023/01/04 01:15:08;;;;;;;41.08;14.77;;;;;;;;;;5151641;27;20087;-67
2023/01/04 01:17:35;;;;;;;32.25;15.25;;;;;;;;;;5151492;27;20038;-67
2023/01/04 01:20:00;;;;;;;28.90;13.57;;;;;;;;;;5151595;27;20019;-68
2023/01/04 01:22:25;;;;;;;30.50;14.45;;;;;;;;;;5153185;27;20034;-69
2023/01/04 01:24:51;;;;;;;29.65;14.02;;;;;;;;;;5155416;27;20438;-67
2023/01/04 01:27:17;;;;;;;28.13;13.82;;;;;;;;;;5155383;27;20019;-67
2023/01/04 01:29:42;;;;;;;30.15;14.27;;;;;;;;;;5155532;27;20379;-67
2023/01/04 01:32:08;;;;;;;28.73;14.10;;;;;;;;;;5155341;27;20478;-71
2023/01/04 01:34:33;;;;;;;30.40;15.07;;;;;;;;;;5155309;27;20027;-68
2023/01/04 01:36:59;;;;;;;31.08;14.98;;;;;;;;;;5154983;27;20156;-70
2023/01/04 01:39:24;;;;;;;28.00;15.00;;;;;;;;;;5155403;27;20027;-68
2023/01/04 01:41:49;;;;;;;28.67;14.45;;;;;;;;;;5155390;27;20030;-68
2023/01/04 01:44:41;;;;;;;28.73;13.57;;;;;;;;;;5155083;27;20608;-68
2023/01/04 01:47:17;;;;;;;30.65;15.25;;;;;;;;;;5147753;27;20030;-65
2023/01/04 01:49:45;;;;;;;35.85;16.95;;;;;;;;;;5154994;27;20543;-66
2023/01/04 01:52:22;;;;;;;32.67;15.88;;;;;;;;;;5154878;27;20018;-68
2023/01/04 01:54:58;;;;;;;36.40;16.52;;;;;;;;;;5154798;27;20101;-68
2023/01/04 01:57:27;;;;;;;33.63;16.23;;;;;;;;;;5154673;27;20037;-68
2023/01/04 01:59:57;;;;;;;34.97;16.27;;;;;;;;;;5154949;27;20466;-68
2023/01/04 02:02:22;;;;;;;37.47;16.23;;;;;;;;;;5154771;27;20019;-66
2023/01/04 02:04:49;;;;;;;35.70;16.70;;;;;;;;;;5154544;27;20527;-71
2023/01/04 02:07:19;;;;;;;40.67;16.92;;;;;;;;;;5154492;27;20038;-69
2023/01/04 02:09:46;;;;;;;39.45;17.10;;;;;;;;;;5154570;27;20374;-69
2023/01/04 02:12:12;;;;;;;29.17;15.00;;;;;;;;;;5154489;27;20026;-68
2023/01/04 02:14:38;;;;;;;26.05;13.40;;;;;;;;;;5154387;27;20118;-69
2023/01/04 02:17:30;;;;;;;19.95;11.30;;;;;;;;;;5154331;27;20050;-71
2023/01/04 02:20:01;;;;;;;19.88;10.57;;;;;;;;;;5154457;27;20034;-70
2023/01/04 02:22:57;;;;;;;22.80;11.18;;;;;;;;;;5154540;27;20027;-71
2023/01/04 02:25:47;;;;;;;15.70;9.50;;;;;;;;;;5154326;27;20065;-69
2023/01/04 02:28:31;;;;;;;16.25;9.43;;;;;;;;;;5154157;27;20478;-67
2023/01/04 02:31:44;;;;;;;15.82;9.07;;;;;;;;;;5154381;27;20037;-68
2023/01/04 02:34:40;;;;;;;18.17;8.95;;;;;;;;;;5139644;27;20118;-66
2023/01/04 02:37:24;;;;;;;16.45;8.73;;;;;;;;;;5153882;27;20026;-67
2023/01/04 02:40:18;;;;;;;16.77;8.95;;;;;;;;;;5154103;27;20382;-69
2023/01/04 02:45:51;;;;;;;16.77;8.63;;;;;;;;;;5153974;27;20045;-68
2023/01/04 02:51:01;;;;;;;14.43;9.10;;;;;;;;;;5153738;27;20832;-75
2023/01/04 02:53:36;;;;;;;14.85;9.27;;;;;;;;;;5153549;27;20545;-73
2023/01/04 02:56:42;;;;;;;16.38;8.52;;;;;;;;;;5153793;27;20109;-74
2023/01/04 02:59:39;;;;;;;17.70;8.90;;;;;;;;;;5152940;27;20031;-71
2023/01/04 03:08:29;;;;;;;15.57;8.73;;;;;;;;;;5153783;27;20118;-71
2023/01/04 03:11:04;;;;;;;12.88;8.43;;;;;;;;;;5153359;27;20023;-70
2023/01/04 03:13:41;;;;;;;15.13;8.50;;;;;;;;;;5153092;27;20124;-75
2023/01/04 03:16:12;;;;;;;13.15;7.82;;;;;;;;;;5153203;27;20022;-72
2023/01/04 03:18:42;;;;;;;11.68;7.50;;;;;;;;;;5152883;27;20023;-69
2023/01/04 03:21:10;;;;;;;13.27;7.70;;;;;;;;;;5153294;27;20113;-67
2023/01/04 03:35:23;;;;;;;19.60;8.35;;;;;;;;;;5153035;27;20042;-73
2023/01/04 03:50:43;;;;;;;14.60;8.13;;;;;;;;;;5152500;27;20103;-72
2023/01/04 03:53:09;;;;;;;15.25;8.45;;;;;;;;;;5151937;27;20049;-74
2023/01/04 03:55:37;;;;;;;14.98;8.38;;;;;;;;;;5152473;27;20023;-70
2023/01/04 03:58:02;;;;;;;15.40;8.80;;;;;;;;;;5152337;27;20069;-68
2023/01/04 04:00:28;;;;;;;15.30;8.57;;;;;;;;;;5151217;27;20058;-69
2023/01/04 04:03:05;;;;;;;22.88;9.10;;;;;;;;;;5152576;27;20470;-71
2023/01/04 04:08:30;;;;;;;18.70;8.68;;;;;;;;;;5152250;27;20079;-70
2023/01/04 04:11:29;;;;;;;14.45;8.43;;;;;;;;;;5152513;27;20034;-69
2023/01/04 04:13:47;;;;;;;12.95;8.15;;;;;;;;;;5162482;27;20030;-71
2023/01/04 04:16:13;;;;;;;25.17;8.93;;;;;;;;;;5167267;27;20029;-75
2023/01/04 04:18:38;;;;;;;18.08;9.40;;;;;;;;;;5156703;27;20023;-75
2023/01/04 04:21:04;;;;;;;19.10;10.88;;;;;;;;;;5152481;27;20026;-76
2023/01/04 04:23:30;;;;;;;21.83;11.98;;;;;;;;;;5152275;27;20106;-72
2023/01/04 04:25:55;;;;;;;15.02;9.15;;;;;;;;;;5152153;27;20072;-72
2023/01/04 04:28:20;;;;;;;20.80;10.32;;;;;;;;;;5151933;27;20014;-72
2023/01/04 04:30:48;;;;;;;14.35;7.95;;;;;;;;;;5151926;27;20025;-70
2023/01/04 04:33:14;;;;;;;20.08;9.63;;;;;;;;;;5151782;27;20034;-68
2023/01/04 04:35:39;;;;;;;26.10;8.98;;;;;;;;;;5152057;27;20385;-67
2023/01/04 04:38:05;;;;;;;13.38;7.78;;;;;;;;;;5151886;27;20034;-66
2023/01/04 04:43:14;;;;;;;16.90;7.05;;;;;;;;;;5151914;27;20071;-67
2023/01/04 04:45:39;;;;;;;11.88;7.45;;;;;;;;;;5152055;27;20046;-67
2023/01/04 04:48:04;;;;;;;11.23;7.22;;;;;;;;;;5151743;27;20019;-67
2023/01/04 04:50:30;;;;;;;13.23;7.78;;;;;;;;;;5151881;27;20588;-67
2023/01/04 04:52:55;;;;;;;11.52;7.22;;;;;;;;;;5151785;27;20109;-66
2023/01/04 04:55:21;;;;;;;18.65;7.80;;;;;;;;;;5151774;27;20025;-66
2023/01/04 04:57:46;;;;;;;11.57;7.53;;;;;;;;;;5153889;27;20433;-74
2023/01/04 05:00:12;;;;;;;13.98;7.43;;;;;;;;;;5155926;27;20041;-73
2023/01/04 05:02:38;;;;;;;11.98;6.85;;;;;;;;;;5156054;27;20030;-74
2023/01/04 05:05:04;;;;;;;13.63;7.97;;;;;;;;;;5155980;27;20033;-74
2023/01/04 05:07:29;;;;;;;17.35;7.60;;;;;;;;;;5156028;27;20029;-73
2023/01/04 05:09:54;;;;;;;15.07;7.25;;;;;;;;;;5155523;27;20481;-74
2023/01/04 05:15:04;;;;;;;10.77;6.57;;;;;;;;;;5155525;27;20545;-74
2023/01/04 05:17:29;;;;;;;12.10;6.93;;;;;;;;;;5155677;27;20603;-74
2023/01/04 05:19:55;;;;;;;17.15;7.30;;;;;;;;;;5155360;27;20107;-75
2023/01/04 05:22:20;;;;;;;13.23;7.20;;;;;;;;;;5155668;27;20018;-74
2023/01/04 05:24:46;;;;;;;12.27;7.75;;;;;;;;;;5155545;27;20402;-73
2023/01/04 05:27:11;;;;;;;24.98;7.70;;;;;;;;;;5155651;27;20031;-72
2023/01/04 05:32:21;;;;;;;25.65;7.45;;;;;;;;;;5155473;27;20041;-66
2023/01/04 05:34:46;;;;;;;16.20;7.03;;;;;;;;;;5155209;27;20485;-74
2023/01/04 05:37:12;;;;;;;12.02;6.13;;;;;;;;;;5155377;27;20102;-70
2023/01/04 05:39:37;;;;;;;17.17;8.43;;;;;;;;;;5155130;27;20049;-67
2023/01/04 05:44:46;;;;;;;11.90;6.45;;;;;;;;;;5155076;27;20054;-73
2023/01/04 05:47:12;;;;;;;17.55;7.10;;;;;;;;;;5155119;27;20019;-67
2023/01/04 05:49:37;;;;;;;12.27;7.05;;;;;;;;;;5154635;27;20126;-74
2023/01/04 05:52:02;;;;;;;10.10;6.43;;;;;;;;;;5154836;27;20023;-75
2023/01/04 05:54:28;;;;;;;10.77;6.65;;;;;;;;;;5154569;27;20091;-73
2023/01/04 05:56:53;;;;;;;11.05;6.47;;;;;;;;;;5154944;27;20018;-74
2023/01/04 05:59:18;;;;;;;11.38;6.60;;;;;;;;;;5154579;27;20026;-73
2023/01/04 06:01:44;;;;;;;12.20;6.70;;;;;;;;;;5155008;27;20050;-73
2023/01/04 06:04:09;;;;;;;14.38;6.32;;;;;;;;;;5154809;27;20031;-73
2023/01/04 06:06:35;;;;;;;13.02;7.03;;;;;;;;;;5154743;27;20014;-75
2023/01/04 06:09:00;;;;;;;15.07;6.97;;;;;;;;;;5153889;27;20026;-68
2023/01/04 06:11:25;;;;;;;17.33;7.70;;;;;;;;;;5154739;27;20044;-71
2023/01/04 06:13:51;;;;;;;12.13;6.85;;;;;;;;;;5154298;27;20475;-74
2023/01/04 06:16:16;;;;;;;19.77;7.30;;;;;;;;;;5154566;27;20050;-71
2023/01/04 06:18:41;;;;;;;12.60;7.45;;;;;;;;;;5154091;27;20034;-72
2023/01/04 06:21:07;;;;;;;14.00;7.22;;;;;;;;;;5154496;27;20033;-69
2023/01/04 06:23:32;;;;;;;12.57;6.65;;;;;;;;;;5154456;27;20047;-73
2023/01/04 06:25:57;;;;;;;13.38;7.13;;;;;;;;;;5154354;27;20014;-68
2023/01/04 06:28:23;;;;;;;11.10;6.53;;;;;;;;;;5154157;27;20469;-72
2023/01/04 06:30:48;;;;;;;11.85;6.45;;;;;;;;;;5154131;27;20030;-68
2023/01/04 06:33:13;;;;;;;16.13;6.40;;;;;;;;;;5153875;27;20030;-69
2023/01/04 06:35:39;;;;;;;11.13;6.07;;;;;;;;;;5154099;27;20034;-71
2023/01/04 06:38:04;;;;;;;11.20;6.68;;;;;;;;;;5153919;27;20026;-71
2023/01/04 06:40:30;;;;;;;11.15;5.97;;;;;;;;;;5154089;27;20019;-67
2023/01/04 06:42:55;;;;;;;10.25;6.15;;;;;;;;;;5154230;27;20054;-66
2023/01/04 06:45:20;;;;;;;11.05;6.93;;;;;;;;;;5154092;27;20037;-66
2023/01/04 06:47:46;;;;;;;19.98;9.27;;;;;;;;;;5154079;27;20026;-67
2023/01/04 06:50:12;;;;;;;16.88;8.57;;;;;;;;;;5153563;27;20033;-67
2023/01/04 06:52:38;;;;;;;18.20;8.85;;;;;;;;;;5153771;27;20101;-70
2023/01/04 06:55:05;;;;;;;17.60;8.57;;;;;;;;;;5154336;27;20075;-68
2023/01/04 06:57:31;;;;;;;16.70;8.68;;;;;;;;;;5154063;27;20427;-67
2023/01/04 06:59:56;;;;;;;14.10;8.13;;;;;;;;;;5153835;27;20026;-67
2023/01/04 07:02:21;;;;;;;13.30;8.25;;;;;;;;;;5153937;27;20086;-67
2023/01/04 07:04:47;;;;;;;14.95;8.48;;;;;;;;;;5153594;27;20027;-67
2023/01/04 07:07:12;;;;;;;16.00;8.35;;;;;;;;;;5153674;27;20467;-67
2023/01/04 07:09:38;;;;;;;11.88;6.25;;;;;;;;;;5153226;27;20019;-67
2023/01/04 07:12:03;;;;;;;9.10;5.93;;;;;;;;;;5153232;27;20019;-67
2023/01/04 07:14:29;;;;;;;22.38;6.43;;;;;;;;;;5153181;27;20027;-67
2023/01/04 07:16:55;;;;;;;14.32;6.45;;;;;;;;;;5153370;27;20390;-67
2023/01/04 07:19:20;;;;;;;11.20;6.03;;;;;;;;;;5152497;27;20107;-67
2023/01/04 07:21:45;;;;;;;10.82;6.57;;;;;;;;;;5153070;27;20040;-67
2023/01/04 07:24:11;;;;;;;12.98;7.00;;;;;;;;;;5153292;27;20026;-68
2023/01/04 07:26:36;;;;;;;11.73;7.22;;;;;;;;;;5153123;27;20121;-69
2023/01/04 07:29:15;;;;;;;20.80;7.57;;;;;;;;;;5152774;27;20106;-71
2023/01/04 07:31:43;;;;;;;12.98;7.65;;;;;;;;;;5152957;27;20023;-70
2023/01/04 07:34:08;;;;;;;13.30;7.35;;;;;;;;;;5152592;27;20054;-74
2023/01/04 07:36:33;;;;;;;11.80;7.47;;;;;;;;;;5152857;27;20019;-73
2023/01/04 07:38:59;;;;;;;10.02;6.57;;;;;;;;;;5152846;27;20087;-70
2023/01/04 07:41:24;;;;;;;10.32;6.43;;;;;;;;;;5153065;27;20015;-71
2023/01/04 07:43:50;;;;;;;10.35;6.18;;;;;;;;;;5152738;27;20043;-72
2023/01/04 07:46:16;;;;;;;10.65;5.97;;;;;;;;;;5152884;27;20023;-71
2023/01/04 07:48:41;;;;;;;10.93;6.30;;;;;;;;;;5152293;27;20114;-67
2023/01/04 07:51:06;;;;;;;10.40;6.32;;;;;;;;;;5152315;27;20019;-69
2023/01/04 07:53:32;;;;;;;13.02;6.28;;;;;;;;;;5152446;27;20119;-72
2023/01/04 07:55:58;;;;;;;24.60;6.40;;;;;;;;;;5152496;27;20039;-68
2023/01/04 07:58:25;;;;;;;10.75;5.93;;;;;;;;;;5152697;27;20023;-73
2023/01/04 08:00:50;;;;;;;9.18;5.88;;;;;;;;;;5151125;27;20018;-70
2023/01/04 08:03:16;;;;;;;12.30;5.93;;;;;;;;;;5152405;27;20022;-68
2023/01/04 08:05:42;;;;;;;16.17;6.20;;;;;;;;;;5152455;27;20042;-69
2023/01/04 08:08:08;;;;;;;10.55;6.40;;;;;;;;;;5152399;27;20051;-69
2023/01/04 08:10:33;;;;;;;12.95;6.35;;;;;;;;;;5152021;27;20075;-75
2023/01/04 08:12:59;;;;;;;9.43;5.95;;;;;;;;;;5152483;27;20018;-70
2023/01/04 08:15:27;;;;;;;14.00;7.63;;;;;;;;;;5152181;27;20053;-74
2023/01/04 08:17:55;;;;;;;11.15;6.78;;;;;;;;;;5152386;27;20053;-73
2023/01/04 08:20:20;;;;;;;17.73;7.70;;;;;;;;;;5152029;27;20051;-72
2023/01/04 08:22:46;;;;;;;16.20;8.18;;;;;;;;;;5152365;27;20115;-73
2023/01/04 08:25:11;;;;;;;14.93;8.45;;;;;;;;;;5152163;27;20026;-73
2023/01/04 08:27:36;;;;;;;12.25;7.15;;;;;;;;;;5152150;27;20022;-72
2023/01/04 08:30:03;;;;;;;11.13;6.97;;;;;;;;;;5151738;27;20050;-73
2023/01/04 08:32:29;;;;;;;14.65;6.95;;;;;;;;;;5151456;27;20484;-74
2023/01/04 08:34:54;;;;;;;13.65;6.25;;;;;;;;;;5151942;27;20050;-69
2023/01/04 08:37:20;;;;;;;10.07;6.80;;;;;;;;;;5151990;27;20022;-73
2023/01/04 08:39:45;;;;;;;15.77;6.82;;;;;;;;;;5152003;27;20466;-74
2023/01/04 08:42:10;;;;;;;24.88;6.85;;;;;;;;;;5152025;27;20026;-69
2023/01/04 08:44:36;;;;;;;15.13;7.05;;;;;;;;;;5151746;27;20085;-73
2023/01/04 08:47:02;;;;;;;11.32;6.90;;;;;;;;;;5151941;27;20022;-71
2023/01/04 08:49:27;;;;;;;20.17;7.70;;;;;;;;;;5151429;27;20027;-68
2023/01/04 08:51:53;;;;;;;14.20;7.20;;;;;;;;;;5151743;27;20440;-69
2023/01/04 08:54:18;;;;;;;13.20;7.05;;;;;;;;;;5151784;27;20035;-71
2023/01/04 08:56:44;;;;;;;15.98;7.40;;;;;;;;;;5150286;27;20430;-70
2023/01/04 08:59:11;;;;;;;18.05;7.18;;;;;;;;;;5151777;27;20033;-71
2023/01/04 09:01:38;;;;;;;19.00;7.82;;;;;;;;;;5151752;27;20015;-68
2023/01/04 09:04:03;;;;;;;18.20;7.35;;;;;;;;;;5151674;27;20426;-71
2023/01/04 09:06:29;;;;;;;31.67;7.55;;;;;;;;;;5151851;27;20115;-69
2023/01/04 09:08:56;;;;;;;31.83;7.45;;;;;;;;;;5151686;27;20390;-68
2023/01/04 09:11:23;;;;;;;23.23;6.55;;;;;;;;;;5151617;27;20075;-72
2023/01/04 09:13:53;;;;;;;12.85;7.03;;;;;;;;;;5151631;27;20033;-72
2023/01/04 09:16:19;;;;;;;12.15;6.43;;;;;;;;;;5151634;27;20029;-74
2023/01/04 09:18:45;;;;;;;10.90;6.10;;;;;;;;;;5151590;27;20027;-76
2023/01/04 09:21:16;;;;;;;10.70;6.38;;;;;;;;;;5151640;27;20015;-74
2023/01/04 09:23:43;;;;;;;13.75;6.82;;;;;;;;;;5151675;27;20513;-72
2023/01/04 09:26:12;;;;;;;12.82;6.68;;;;;;;;;;5151392;27;20094;-70
2023/01/04 09:28:37;;;;;;;10.27;6.53;;;;;;;;;;5151295;27;20023;-72
2023/01/04 09:31:07;;;;;;;12.95;6.72;;;;;;;;;;5151209;27;20122;-67
2023/01/04 09:33:32;;;;;;;24.23;6.90;;;;;;;;;;5151284;27;20027;-68
2023/01/04 09:36:05;;;;;;;15.95;6.68;;;;;;;;;;5152034;27;20026;-69
2023/01/04 09:38:32;;;;;;;13.20;6.47;;;;;;;;;;5153604;27;20152;-67
2023/01/04 09:41:00;;;;;;;11.13;6.53;;;;;;;;;;5164516;27;20037;-75
2023/01/04 09:43:33;;;;;;;16.98;6.97;;;;;;;;;;5160922;27;20042;-68
2023/01/04 09:46:04;;;;;;;10.98;6.80;;;;;;;;;;5157045;27;20363;-69
2023/01/04 09:48:32;;;;;;;13.05;7.10;;;;;;;;;;5155820;27;20023;-71
2023/01/04 09:51:02;;;;;;;13.90;7.50;;;;;;;;;;5154907;27;20026;-68
2023/01/04 09:53:47;;;;;;;13.25;7.55;;;;;;;;;;5154894;27;20045;-72
2023/01/04 09:56:30;;;;;;;12.90;6.90;;;;;;;;;;5155089;27;20023;-72
2023/01/04 09:58:58;;;;;;;12.50;7.72;;;;;;;;;;5155002;27;20094;-72
2023/01/04 10:01:29;;;;;;;17.27;7.93;;;;;;;;;;5154742;27;20034;-70
2023/01/04 10:04:16;;;;;;;14.43;7.88;;;;;;;;;;5154739;27;20104;-73
2023/01/04 10:06:44;;;;;;;16.38;7.57;;;;;;;;;;5154791;27;20031;-72
2023/01/04 10:09:14;;;;;;;15.52;7.97;;;;;;;;;;5154825;27;20030;-71
2023/01/04 10:12:00;;;;;;;16.70;8.70;;;;;;;;;;5154374;27;20087;-75
2023/01/04 10:14:46;;;;;;;16.17;8.52;;;;;;;;;;5154482;27;20038;-76
2023/01/04 10:17:22;;;;;;;16.70;8.88;;;;;;;;;;5154899;27;20018;-72
2023/01/04 10:20:11;;;;;;;16.80;9.73;;;;;;;;;;5154401;27;20026;-70
2023/01/04 10:23:17;;;;;;;15.20;9.05;;;;;;;;;;5154480;27;20034;-67
2023/01/04 10:25:50;;;;;;;17.40;9.10;;;;;;;;;;5154170;27;20022;-67
2023/01/04 10:28:27;;;;;;;19.23;9.07;;;;;;;;;;5154306;27;20030;-68
2023/01/04 10:31:17;;;;;;;18.88;9.73;;;;;;;;;;5153889;27;20367;-69
2023/01/04 10:33:46;;;;;;;17.75;8.75;;;;;;;;;;5153950;27;20037;-70
2023/01/04 10:36:27;;;;;;;17.65;8.90;;;;;;;;;;5154266;27;20439;-69
2023/01/04 10:38:58;;;;;;;;;;;;;;;;;;5154623;27;20154;-66
2023/01/04 10:41:26;;;;;;;16.95;9.15;;;;;;;;;;5153892;27;20345;-72
2023/01/04 10:44:12;;;;;;;16.27;8.93;;;;;;;;;;5153788;27;20487;-68
2023/01/04 10:47:03;;;;;;;16.95;9.05;;;;;;;;;;5153834;27;20039;-73
2023/01/04 10:49:36;;;;;;;16.92;8.73;;;;;;;;;;5153688;27;20026;-71
2023/01/04 10:52:06;;;;;;;15.10;8.38;;;;;;;;;;5153667;27;20023;-68
2023/01/04 10:54:46;;;;;;;16.27;8.60;;;;;;;;;;5153675;27;20140;-73
2023/01/04 10:57:30;;;;;;;17.17;8.77;;;;;;;;;;5153475;27;20620;-68
2023/01/04 11:00:02;;;;;;;14.98;9.05;;;;;;;;;;5152436;27;20035;-67
2023/01/04 11:02:40;;;;;;;15.90;8.90;;;;;;;;;;5153643;27;20018;-75
2023/01/04 11:05:33;;;;;;;15.05;8.88;;;;;;;;;;5153555;27;20022;-71
2023/01/04 11:08:09;;;;;;;17.30;7.97;;;;;;;;;;5153611;27;20037;-70
2023/01/04 11:10:36;;;;;;;14.00;9.15;;;;;;;;;;5151796;27;20159;-75
2023/01/04 11:13:02;;;;;;;18.52;8.50;;;;;;;;;;5153278;27;20528;-70
2023/01/04 11:15:29;;;;;;;14.57;8.20;;;;;;;;;;5153537;27;20019;-74
2023/01/04 11:17:55;;;;;;;15.40;9.48;;;;;;;;;;5153544;27;20101;-68
2023/01/04 11:20:20;;;;;;;14.93;9.00;;;;;;;;;;5153175;27;20098;-68
2023/01/04 11:22:59;;;;;;;15.60;9.68;;;;;;;;;;5153286;27;20113;-71
2023/01/04 11:25:27;;;;;;;14.35;9.13;;;;;;;;;;5152990;27;20031;-75
2023/01/04 11:28:00;;;;;;;18.13;10.02;;;;;;;;;;5152997;27;20106;-72
2023/01/04 11:30:34;;;;;;;14.73;9.70;;;;;;;;;;5152710;27;20014;-71
2023/01/04 11:33:14;;;;;;;15.68;9.80;;;;;;;;;;5153078;27;20030;-71
2023/01/04 11:35:45;;;;;;;16.35;9.93;;;;;;;;;;5153060;27;20034;-72
2023/01/04 11:38:21;;;;;;;15.05;9.57;;;;;;;;;;5153058;27;20027;-74
2023/01/04 11:40:59;;;;;;;15.10;9.73;;;;;;;;;;5152877;27;20110;-72
2023/01/04 11:43:27;;;;;;;15.75;10.00;;;;;;;;;;5152526;27;20022;-68
2023/01/04 11:46:16;;;;;;;13.82;9.65;;;;;;;;;;5152659;27;20043;-74
2023/01/04 11:48:45;;;;;;;14.60;9.23;;;;;;;;;;5152761;27;20100;-74
2023/01/04 11:51:27;;;;;;;15.80;9.88;;;;;;;;;;5152498;27;20022;-73
2023/01/04 11:54:17;;;;;;;16.17;10.18;;;;;;;;;;5152808;27;20026;-68
2023/01/04 11:57:01;;;;;;;15.77;9.77;;;;;;;;;;5152494;27;20022;-69
2023/01/04 11:59:26;;;;;;;16.55;10.07;;;;;;;;;;5152705;27;20034;-67
2023/01/04 12:02:20;;;;;;;15.98;10.15;;;;;;;;;;5152345;27;20026;-67
2023/01/04 12:04:45;;;;;;;15.90;10.38;;;;;;;;;;5152104;27;20022;-68
2023/01/04 12:07:30;;;;;;;16.98;10.27;;;;;;;;;;5151912;27;20037;-67
2023/01/04 12:09:57;;;;;;;15.73;9.75;;;;;;;;;;5152361;27;20082;-67
2023/01/04 12:12:28;;;;;;;16.55;10.15;;;;;;;;;;5152082;27;20026;-67
2023/01/04 12:14:54;;;;;;;15.23;9.80;;;;;;;;;;5152307;27;20482;-68
2023/01/04 12:17:44;;;;;;;15.98;9.85;;;;;;;;;;5152389;27;20466;-67
2023/01/04 12:20:18;;;;;;;14.90;9.82;;;;;;;;;;5152176;27;20038;-67
2023/01/04 12:22:44;;;;;;;15.07;9.85;;;;;;;;;;5152264;27;20020;-66
2023/01/04 12:25:27;;;;;;;14.27;9.48;;;;;;;;;;5152151;27;20164;-66
2023/01/04 12:27:56;;;;;;;15.63;9.57;;;;;;;;;;5152054;27;20106;-66
2023/01/04 12:30:45;;;;;;;16.13;9.93;;;;;;;;;;5151999;27;20034;-67
2023/01/04 12:33:29;;;;;;;12.85;8.68;;;;;;;;;;5152055;27;20052;-68
2023/01/04 12:36:19;;;;;;;15.55;8.85;;;;;;;;;;5152287;27;20026;-67
2023/01/04 12:38:53;;;;;;;13.53;9.40;;;;;;;;;;5150898;27;20015;-67
2023/01/04 12:41:59;;;;;;;13.35;9.50;;;;;;;;;;5151738;27;20067;-67
2023/01/04 12:44:39;;;;;;;16.58;10.20;;;;;;;;;;5151572;27;20125;-68
2023/01/04 12:50:14;;;;;;;14.65;9.30;;;;;;;;;;5151648;27;20128;-68
2023/01/04 12:52:50;;;;;;;16.73;9.30;;;;;;;;;;5151479;27;20470;-67
2023/01/04 12:55:18;;;;;;;15.82;9.32;;;;;;;;;;5152102;27;20019;-69
2023/01/04 12:57:44;;;;;;;13.82;9.60;;;;;;;;;;5151784;27;20019;-69
2023/01/04 13:00:11;;;;;;;14.57;9.20;;;;;;;;;;5152003;27;20098;-69
2023/01/04 13:02:46;;;;;;;13.63;8.40;;;;;;;;;;5151992;27;20031;-68
2023/01/04 13:05:17;;;;;;;15.65;8.27;;;;;;;;;;5150349;27;20019;-68
2023/01/04 13:07:47;;;;;;;15.85;8.55;;;;;;;;;;5151569;27;20026;-66
2023/01/04 13:10:25;;;;;;;13.00;8.07;;;;;;;;;;5151672;27;20661;-68
2023/01/04 13:12:51;;;;;;;12.73;8.20;;;;;;;;;;5151540;27;20025;-67
2023/01/04 13:15:27;;;;;;;12.32;7.75;;;;;;;;;;5151657;27;20015;-68
2023/01/04 13:17:53;;;;;;;12.80;7.60;;;;;;;;;;5152358;27;20591;-67
2023/01/04 13:20:24;;;;;;;11.88;7.38;;;;;;;;;;5155646;27;20027;-68
2023/01/04 13:22:55;;;;;;;14.18;7.90;;;;;;;;;;5155450;27;20019;-68
2023/01/04 13:25:22;;;;;;;;;;;;;;;;;;5156013;27;20130;-67
2023/01/04 13:28:03;;;;;;;12.05;7.43;;;;;;;;;;5155509;27;19950;-68
2023/01/04 13:30:33;;;;;;;11.02;7.55;;;;;;;;;;5155404;27;20102;-68
2023/01/04 13:33:07;;;;;;;12.43;7.90;;;;;;;;;;5155394;27;20026;-69
2023/01/04 13:35:32;;;;;;;15.65;8.45;;;;;;;;;;5155615;27;20034;-68
2023/01/04 13:37:59;;;;;;;11.23;7.43;;;;;;;;;;5155525;27;20027;-67
2023/01/04 13:40:33;;;;;;;13.35;7.57;;;;;;;;;;5155417;27;20474;-71
2023/01/04 13:43:40;;;;;;;10.82;7.07;;;;;;;;;;5155101;27;20050;-74
2023/01/04 13:46:18;;;;;;;11.05;7.40;;;;;;;;;;5146378;27;20062;-73
2023/01/04 13:48:46;;;;;;;11.68;7.25;;;;;;;;;;5154862;27;20027;-74
2023/01/04 13:51:24;;;;;;;11.18;7.00;;;;;;;;;;5154731;27;20042;-69
2023/01/04 13:53:54;;;;;;;11.20;7.32;;;;;;;;;;5155111;27;20167;-71
2023/01/04 13:56:25;;;;;;;14.70;7.70;;;;;;;;;;5155141;27;20045;-75
2023/01/04 13:58:51;;;;;;;12.63;7.78;;;;;;;;;;5155213;27;20038;-70
2023/01/04 14:01:32;;;;;;;14.18;8.05;;;;;;;;;;5154774;27;20026;-70
2023/01/04 14:04:00;;;;;;;10.85;7.18;;;;;;;;;;5154754;27;20470;-75
2023/01/04 14:06:31;;;;;;;13.40;7.78;;;;;;;;;;5154741;27;20030;-74
2023/01/04 14:08:59;;;;;;;10.10;6.78;;;;;;;;;;5154784;27;20049;-74
2023/01/04 14:11:58;;;;;;;11.90;7.07;;;;;;;;;;5154536;27;20067;-71
2023/01/04 14:14:41;;;;;;;13.85;7.65;;;;;;;;;;5154587;27;20027;-72
2023/01/04 14:17:16;;;;;;;12.48;7.32;;;;;;;;;;5154760;27;20037;-70
2023/01/04 14:19:45;;;;;;;12.30;7.57;;;;;;;;;;5154593;27;20058;-69
2023/01/04 14:22:19;;;;;;;11.38;7.35;;;;;;;;;;5154107;27;20023;-75
2023/01/04 14:24:45;;;;;;;11.93;7.63;;;;;;;;;;5154330;27;20094;-75
2023/01/04 14:27:33;;;;;;;14.48;7.90;;;;;;;;;;5154307;27;20110;-70
2023/01/04 14:30:17;;;;;;;11.23;7.40;;;;;;;;;;5154171;27;20062;-72
2023/01/04 14:33:01;;;;;;;10.95;7.72;;;;;;;;;;5154046;27;20474;-70
2023/01/04 14:35:28;;;;;;;12.30;7.40;;;;;;;;;;5154501;27;20062;-73
2023/01/04 14:38:01;;;;;;;10.98;7.65;;;;;;;;;;5154071;27;20045;-70
2023/01/04 14:40:30;;;;;;;10.25;7.60;;;;;;;;;;5154303;27;20026;-74
2023/01/04 14:42:56;;;;;;;11.88;7.32;;;;;;;;;;5153862;27;20039;-75
2023/01/04 14:45:21;;;;;;;12.05;7.70;;;;;;;;;;5153799;27;20049;-68
2023/01/04 14:47:47;;;;;;;11.05;7.65;;;;;;;;;;5154078;27;20023;-69
2023/01/04 14:50:13;;;;;;;13.10;7.88;;;;;;;;;;5153866;27;20030;-70
2023/01/04 14:52:39;;;;;;;11.23;7.93;;;;;;;;;;5153824;27;20031;-71
2023/01/04 14:55:05;;;;;;;11.00;7.57;;;;;;;;;;5153877;27;20038;-70
2023/01/04 14:57:37;;;;;;;15.13;7.80;;;;;;;;;;5153741;27;20031;-72
2023/01/04 15:00:02;;;;;;;12.98;7.90;;;;;;;;;;5153782;27;20029;-74
2023/01/04 15:02:29;;;;;;;11.10;7.65;;;;;;;;;;5153325;27;20109;-71
2023/01/04 15:04:54;;;;;;;11.00;7.97;;;;;;;;;;5153371;27;20035;-67
2023/01/04 15:07:39;;;;;;;14.85;7.78;;;;;;;;;;5154674;27;20497;-72
2023/01/04 15:10:07;;;;;;;12.23;7.82;;;;;;;;;;5153687;27;20105;-69
2023/01/04 15:12:33;;;;;;;11.10;7.50;;;;;;;;;;5153284;27;20113;-68
2023/01/04 15:14:58;;;;;;;12.25;7.18;;;;;;;;;;5153470;27;20106;-75
2023/01/04 15:17:23;;;;;;;11.57;7.47;;;;;;;;;;5153370;27;20106;-74
2023/01/04 15:19:49;;;;;;;9.57;6.80;;;;;;;;;;5153181;27;20098;-74
2023/01/04 15:22:14;;;;;;;9.90;7.07;;;;;;;;;;5153026;27;20018;-74
2023/01/04 15:24:40;;;;;;;11.93;6.68;;;;;;;;;;5153011;27;20030;-70
2023/01/04 15:27:05;;;;;;;11.45;7.45;;;;;;;;;;5152987;27;20126;-75
2023/01/04 15:29:30;;;;;;;10.82;7.43;;;;;;;;;;5153233;27;20023;-75
2023/01/04 15:31:56;;;;;;;10.07;6.95;;;;;;;;;;5152874;27;20015;-75
2023/01/04 15:34:21;;;;;;;11.63;7.68;;;;;;;;;;5152650;27;20026;-72
2023/01/04 15:36:50;;;;;;;12.82;7.13;;;;;;;;;;5153191;27;20547;-74
2023/01/04 15:39:15;;;;;;;11.98;7.80;;;;;;;;;;5152860;27;20033;-75
2023/01/04 15:44:25;;;;;;;13.35;8.07;;;;;;;;;;5152738;27;20049;-74